createdAt,value
2022-08-03T12:02:33.639Z,34.00
2022-08-03T12:08:04.586Z,28.90
2022-08-03T12:14:33.035Z,29.60
2022-08-03T12:18:33.390Z,30.80
2022-08-03T12:23:38.148Z,29.20
2022-08-03T12:28:49.970Z,28.70
2022-08-03T12:34:10.213Z,29.70
2022-08-03T12:39:12.221Z,28.50
2022-08-03T12:44:14.273Z,30.30
2022-08-03T12:49:19.873Z,27.30
2022-08-03T12:54:26.214Z,27.90
2022-08-03T12:59:34.681Z,28.50
2022-08-03T13:04:37.535Z,29.30
2022-08-03T13:09:50.853Z,30.60
2022-08-03T13:14:59.022Z,28.10
2022-08-03T13:20:01.032Z,32.10
2022-08-03T13:25:04.000Z,29.00
2022-08-03T13:30:07.857Z,26.80
2022-08-03T13:35:10.686Z,27.60
2022-08-03T13:40:12.683Z,27.80
2022-08-03T13:45:16.717Z,28.10
2022-08-03T13:50:18.754Z,26.90
2022-08-03T13:55:20.825Z,26.30
2022-08-03T14:00:27.077Z,26.00
2022-08-03T14:05:32.198Z,25.40
2022-08-03T14:10:44.027Z,26.40
2022-08-03T14:15:50.230Z,26.70
2022-08-03T14:20:56.378Z,26.60
2022-08-03T14:25:59.367Z,26.20
2022-08-03T14:31:02.360Z,27.20
2022-08-03T14:36:05.209Z,25.20
2022-08-03T14:41:07.299Z,24.70
2022-08-03T14:46:14.539Z,25.20
2022-08-03T14:51:16.614Z,24.50
2022-08-03T14:56:18.810Z,24.80
2022-08-03T15:02:05.073Z,25.00
2022-08-03T15:06:42.843Z,25.50
2022-08-03T15:11:48.180Z,24.40
2022-08-03T15:16:50.200Z,24.30
2022-08-03T15:21:52.206Z,25.00
2022-08-03T15:26:54.678Z,27.30
2022-08-03T15:31:56.675Z,26.50
2022-08-03T15:36:58.651Z,26.10
2022-08-03T15:42:00.665Z,24.30
2022-08-03T15:47:02.655Z,25.80
2022-08-03T15:52:05.209Z,25.80
2022-08-03T15:57:07.281Z,25.00
2022-08-03T16:02:09.275Z,25.40
2022-08-03T16:07:12.846Z,24.50
2022-08-03T16:12:16.790Z,25.20
2022-08-03T16:17:19.160Z,26.90
2022-08-03T16:22:23.044Z,27.60
2022-08-03T16:27:56.561Z,27.60
2022-08-03T16:32:49.119Z,28.90
2022-08-03T16:37:55.990Z,28.70
2022-08-03T16:42:58.913Z,28.80
2022-08-03T16:48:05.570Z,30.50
2022-08-03T16:53:10.082Z,29.60
2022-08-03T16:58:24.305Z,29.30
2022-08-03T17:03:57.081Z,30.00
2022-08-03T17:09:01.997Z,30.60
2022-08-03T17:14:09.511Z,29.90
2022-08-03T17:19:13.182Z,30.30
2022-08-03T17:24:34.902Z,31.20
2022-08-03T17:29:45.299Z,31.10
2022-08-03T17:34:48.843Z,30.90
2022-08-03T17:39:59.188Z,31.50
2022-08-03T17:45:03.566Z,31.90
2022-08-03T17:50:23.558Z,35.10
2022-08-03T17:55:55.497Z,34.20
2022-08-03T18:02:02.529Z,35.30
2022-08-03T18:06:56.228Z,36.20
2022-08-03T18:12:05.956Z,37.20
2022-08-03T18:17:22.204Z,35.60
2022-08-03T18:22:26.918Z,38.00
2022-08-03T18:27:45.955Z,38.40
2022-08-03T18:33:01.075Z,39.80
2022-08-03T18:38:03.810Z,40.50
2022-08-03T18:43:12.397Z,40.40
2022-08-03T18:48:46.306Z,41.70
2022-08-03T18:54:46.667Z,42.60
2022-08-03T19:00:24.246Z,44.50
2022-08-03T19:06:17.376Z,45.20
2022-08-03T19:12:13.241Z,46.40
2022-08-03T19:17:29.277Z,47.90
2022-08-03T19:22:33.604Z,49.10
2022-08-03T19:27:36.366Z,50.40
2022-08-03T19:32:39.576Z,51.30
2022-08-03T19:37:52.638Z,53.20
2022-08-03T19:43:09.916Z,54.60
2022-08-03T19:48:19.224Z,56.30
2022-08-03T19:53:25.183Z,57.30
2022-08-03T19:58:38.456Z,59.60
2022-08-03T20:03:43.271Z,61.70
2022-08-03T20:08:51.403Z,62.40
2022-08-03T20:13:55.176Z,64.50
2022-08-03T20:18:57.207Z,66.60
2022-08-03T20:24:23.793Z,68.40
